sensor_id;sensor_type;location;lat;lon;timestamp;temperature;humidity
25568;DHT22;13455;51.480;7.594;2022-08-16T00:43:49;20.60;99.90
25568;DHT22;13455;51.480;7.594;2022-08-16T00:46:25;20.60;99.90
25568;DHT22;13455;51.480;7.594;2022-08-16T00:48:52;20.50;99.90
25568;DHT22;13455;51.480;7.594;2022-08-16T00:51:20;20.40;99.90
25568;DHT22;13455;51.480;7.594;2022-08-16T00:53:48;20.40;99.90
25568;DHT22;13455;51.480;7.594;2022-08-16T02:17:41;19.60;99.90
25568;DHT22;13455;51.480;7.594;2022-08-16T02:20:08;19.60;99.90
25568;DHT22;13455;51.480;7.594;2022-08-16T02:22:34;19.60;99.90
25568;DHT22;13455;51.480;7.594;2022-08-16T02:25:03;19.50;99.90
25568;DHT22;13455;51.480;7.594;2022-08-16T02:27:29;19.50;99.90
25568;DHT22;13455;51.480;7.594;2022-08-16T02:29:55;19.40;99.90
25568;DHT22;13455;51.480;7.594;2022-08-16T02:32:20;19.40;99.90
25568;DHT22;13455;51.480;7.594;2022-08-16T02:34:46;19.40;99.90
25568;DHT22;13455;51.480;7.594;2022-08-16T02:37:12;19.30;99.90
25568;DHT22;13455;51.480;7.594;2022-08-16T06:51:14;21.90;99.90
25568;DHT22;13455;51.480;7.594;2022-08-16T06:53:40;22.00;99.90
25568;DHT22;13455;51.480;7.594;2022-08-16T06:56:07;21.30;99.90
25568;DHT22;13455;51.480;7.594;2022-08-16T07:03:28;22.30;99.90
25568;DHT22;13455;51.480;7.594;2022-08-16T07:10:48;22.70;99.90
25568;DHT22;13455;51.480;7.594;2022-08-16T07:13:14;22.80;99.90
25568;DHT22;13455;51.480;7.594;2022-08-16T07:15:41;22.90;99.90
25568;DHT22;13455;51.480;7.594;2022-08-16T07:18:07;22.90;99.90
25568;DHT22;13455;51.480;7.594;2022-08-16T07:20:33;23.10;99.90
25568;DHT22;13455;51.480;7.594;2022-08-16T07:22:58;23.10;99.90
25568;DHT22;13455;51.480;7.594;2022-08-16T07:40:03;23.90;99.90
25568;DHT22;13455;51.480;7.594;2022-08-16T07:44:56;24.40;99.90
25568;DHT22;13455;51.480;7.594;2022-08-16T07:47:22;24.40;99.90
25568;DHT22;13455;51.480;7.594;2022-08-16T07:49:48;24.50;99.90
25568;DHT22;13455;51.480;7.594;2022-08-16T07:57:06;24.80;99.90
25568;DHT22;13455;51.480;7.594;2022-08-16T07:59:31;24.80;99.90
25568;DHT22;13455;51.480;7.594;2022-08-16T08:01:57;24.90;99.90
25568;DHT22;13455;51.480;7.594;2022-08-16T08:04:23;25.00;99.90
25568;DHT22;13455;51.480;7.594;2022-08-16T08:06:49;25.10;99.90
25568;DHT22;13455;51.480;7.594;2022-08-16T08:16:37;25.70;99.90
25568;DHT22;13455;51.480;7.594;2022-08-16T08:19:03;25.80;99.90
25568;DHT22;13455;51.480;7.594;2022-08-16T08:26:22;26.50;99.90
25568;DHT22;13455;51.480;7.594;2022-08-16T08:31:15;26.60;99.90
25568;DHT22;13455;51.480;7.594;2022-08-16T08:33:41;26.70;99.90
25568;DHT22;13455;51.480;7.594;2022-08-16T08:48:27;27.50;99.90
25568;DHT22;13455;51.480;7.594;2022-08-16T08:50:53;27.60;99.90
25568;DHT22;13455;51.480;7.594;2022-08-16T09:10:25;28.70;99.90
25568;DHT22;13455;51.480;7.594;2022-08-16T09:12:51;28.70;99.90
25568;DHT22;13455;51.480;7.594;2022-08-16T09:25:05;29.40;97.30
25568;DHT22;13455;51.480;7.594;2022-08-16T09:27:31;29.40;97.50
25568;DHT22;13455;51.480;7.594;2022-08-16T09:32:23;29.70;95.90
25568;DHT22;13455;51.480;7.594;2022-08-16T09:34:49;29.90;96.40
25568;DHT22;13455;51.480;7.594;2022-08-16T09:42:09;30.50;99.90
25568;DHT22;13455;51.480;7.594;2022-08-16T09:47:02;30.70;91.60
25568;DHT22;13455;51.480;7.594;2022-08-16T09:51:55;31.70;93.00
25568;DHT22;13455;51.480;7.594;2022-08-16T09:54:22;31.10;93.00
25568;DHT22;13455;51.480;7.594;2022-08-16T09:56:48;31.20;90.70
25568;DHT22;13455;51.480;7.594;2022-08-16T09:59:14;31.40;90.70
25568;DHT22;13455;51.480;7.594;2022-08-16T10:01:41;31.50;90.60
25568;DHT22;13455;51.480;7.594;2022-08-16T10:04:09;31.60;90.00
25568;DHT22;13455;51.480;7.594;2022-08-16T10:06:36;31.80;89.80
25568;DHT22;13455;51.480;7.594;2022-08-16T10:09:05;32.00;89.00
25568;DHT22;13455;51.480;7.594;2022-08-16T10:11:31;32.00;87.50
25568;DHT22;13455;51.480;7.594;2022-08-16T10:14:15;32.20;82.90
25568;DHT22;13455;51.480;7.594;2022-08-16T10:28:56;33.20;75.50
25568;DHT22;13455;51.480;7.594;2022-08-16T10:31:22;33.20;76.10
25568;DHT22;13455;51.480;7.594;2022-08-16T10:33:48;33.10;76.10
25568;DHT22;13455;51.480;7.594;2022-08-16T10:36:14;33.10;73.80
25568;DHT22;13455;51.480;7.594;2022-08-16T10:53:25;33.30;78.80
25568;DHT22;13455;51.480;7.594;2022-08-16T10:58:18;33.30;69.70
25568;DHT22;13455;51.480;7.594;2022-08-16T11:00:45;33.40;67.30
25568;DHT22;13455;51.480;7.594;2022-08-16T11:03:10;33.40;68.10
25568;DHT22;13455;51.480;7.594;2022-08-16T11:05:38;33.50;67.70
25568;DHT22;13455;51.480;7.594;2022-08-16T11:08:05;33.50;67.30
25568;DHT22;13455;51.480;7.594;2022-08-16T11:10:37;33.40;65.40
25568;DHT22;13455;51.480;7.594;2022-08-16T11:13:04;33.30;65.20
25568;DHT22;13455;51.480;7.594;2022-08-16T11:15:31;33.30;66.00
25568;DHT22;13455;51.480;7.594;2022-08-16T11:17:58;33.30;65.70
25568;DHT22;13455;51.480;7.594;2022-08-16T11:20:25;33.40;65.20
25568;DHT22;13455;51.480;7.594;2022-08-16T11:22:53;33.30;65.40
25568;DHT22;13455;51.480;7.594;2022-08-16T11:25:22;33.40;63.40
25568;DHT22;13455;51.480;7.594;2022-08-16T11:27:49;33.40;63.90
25568;DHT22;13455;51.480;7.594;2022-08-16T11:30:16;33.40;64.00
25568;DHT22;13455;51.480;7.594;2022-08-16T11:32:42;33.80;64.10
25568;DHT22;13455;51.480;7.594;2022-08-16T11:40:31;34.20;59.90
25568;DHT22;13455;51.480;7.594;2022-08-16T11:42:57;34.20;59.30
25568;DHT22;13455;51.480;7.594;2022-08-16T11:47:49;34.40;79.00
25568;DHT22;13455;51.480;7.594;2022-08-16T12:00:02;34.30;94.70
25568;DHT22;13455;51.480;7.594;2022-08-16T12:02:28;34.10;67.90
25568;DHT22;13455;51.480;7.594;2022-08-16T12:04:54;34.10;64.00
25568;DHT22;13455;51.480;7.594;2022-08-16T12:07:21;34.20;62.60
25568;DHT22;13455;51.480;7.594;2022-08-16T12:14:39;35.10;82.70
25568;DHT22;13455;51.480;7.594;2022-08-16T12:19:32;35.60;91.90
25568;DHT22;13455;51.480;7.594;2022-08-16T12:29:17;35.50;92.30
25568;DHT22;13455;51.480;7.594;2022-08-16T12:31:43;35.70;83.80
25568;DHT22;13455;51.480;7.594;2022-08-16T12:34:09;35.60;77.50
25568;DHT22;13455;51.480;7.594;2022-08-16T12:36:35;35.40;77.90
25568;DHT22;13455;51.480;7.594;2022-08-16T12:41:32;35.80;49.10
25568;DHT22;13455;51.480;7.594;2022-08-16T12:43:58;35.90;49.60
25568;DHT22;13455;51.480;7.594;2022-08-16T12:46:24;35.90;79.30
25568;DHT22;13455;51.480;7.594;2022-08-16T12:48:50;35.80;73.10
25568;DHT22;13455;51.480;7.594;2022-08-16T12:51:34;35.70;72.40
25568;DHT22;13455;51.480;7.594;2022-08-16T12:54:05;35.40;70.80
25568;DHT22;13455;51.480;7.594;2022-08-16T12:56:36;35.50;52.60
25568;DHT22;13455;51.480;7.594;2022-08-16T12:59:06;35.60;49.60
25568;DHT22;13455;51.480;7.594;2022-08-16T13:01:34;35.60;49.00
25568;DHT22;13455;51.480;7.594;2022-08-16T13:04:01;35.90;50.20
25568;DHT22;13455;51.480;7.594;2022-08-16T13:08:55;36.70;82.80
25568;DHT22;13455;51.480;7.594;2022-08-16T13:11:39;37.00;86.60
25568;DHT22;13455;51.480;7.594;2022-08-16T13:16:36;37.60;47.10
25568;DHT22;13455;51.480;7.594;2022-08-16T13:19:03;37.60;71.20
25568;DHT22;13455;51.480;7.594;2022-08-16T13:21:28;37.70;46.40
25568;DHT22;13455;51.480;7.594;2022-08-16T13:26:20;38.30;44.70
25568;DHT22;13455;51.480;7.594;2022-08-16T13:28:46;38.50;43.00
25568;DHT22;13455;51.480;7.594;2022-08-16T13:31:12;38.60;44.30
25568;DHT22;13455;51.480;7.594;2022-08-16T13:33:38;38.60;43.40
25568;DHT22;13455;51.480;7.594;2022-08-16T13:36:06;38.70;43.80
25568;DHT22;13455;51.480;7.594;2022-08-16T13:38:33;38.70;43.30
25568;DHT22;13455;51.480;7.594;2022-08-16T13:41:01;38.60;43.10
25568;DHT22;13455;51.480;7.594;2022-08-16T13:43:29;38.50;42.60
25568;DHT22;13455;51.480;7.594;2022-08-16T13:45:56;38.60;43.00
25568;DHT22;13455;51.480;7.594;2022-08-16T13:48:23;38.60;44.40
25568;DHT22;13455;51.480;7.594;2022-08-16T13:50:49;38.70;44.00
25568;DHT22;13455;51.480;7.594;2022-08-16T13:53:15;38.60;44.30
25568;DHT22;13455;51.480;7.594;2022-08-16T13:55:41;38.40;43.50
25568;DHT22;13455;51.480;7.594;2022-08-16T13:58:07;38.30;42.80
25568;DHT22;13455;51.480;7.594;2022-08-16T14:00:33;38.40;43.80
25568;DHT22;13455;51.480;7.594;2022-08-16T14:02:59;38.60;43.10
25568;DHT22;13455;51.480;7.594;2022-08-16T14:05:25;38.90;43.10
25568;DHT22;13455;51.480;7.594;2022-08-16T14:07:51;39.70;41.90
25568;DHT22;13455;51.480;7.594;2022-08-16T14:12:43;40.20;79.70
25568;DHT22;13455;51.480;7.594;2022-08-16T14:17:37;40.70;39.00
25568;DHT22;13455;51.480;7.594;2022-08-16T14:20:04;40.70;39.60
25568;DHT22;13455;51.480;7.594;2022-08-16T14:22:33;40.70;38.60
25568;DHT22;13455;51.480;7.594;2022-08-16T14:39:41;42.40;71.30
25568;DHT22;13455;51.480;7.594;2022-08-16T14:42:10;42.30;69.70
25568;DHT22;13455;51.480;7.594;2022-08-16T14:56:59;43.00;33.40
25568;DHT22;13455;51.480;7.594;2022-08-16T14:59:25;43.10;34.70
25568;DHT22;13455;51.480;7.594;2022-08-16T15:01:53;43.20;35.30
25568;DHT22;13455;51.480;7.594;2022-08-16T15:04:19;43.50;34.30
25568;DHT22;13455;51.480;7.594;2022-08-16T15:06:44;43.70;33.70
25568;DHT22;13455;51.480;7.594;2022-08-16T15:09:10;43.70;33.00
25568;DHT22;13455;51.480;7.594;2022-08-16T15:11:37;43.80;33.20
25568;DHT22;13455;51.480;7.594;2022-08-16T15:14:03;43.70;33.00
25568;DHT22;13455;51.480;7.594;2022-08-16T15:16:29;43.60;33.00
25568;DHT22;13455;51.480;7.594;2022-08-16T15:18:55;43.60;32.60
25568;DHT22;13455;51.480;7.594;2022-08-16T15:21:23;43.30;31.70
25568;DHT22;13455;51.480;7.594;2022-08-16T15:23:49;43.10;33.40
25568;DHT22;13455;51.480;7.594;2022-08-16T15:26:15;43.20;34.30
25568;DHT22;13455;51.480;7.594;2022-08-16T15:28:40;43.30;34.10
25568;DHT22;13455;51.480;7.594;2022-08-16T15:31:08;43.60;34.40
25568;DHT22;13455;51.480;7.594;2022-08-16T15:33:37;43.70;33.80
25568;DHT22;13455;51.480;7.594;2022-08-16T15:36:06;43.90;33.60
25568;DHT22;13455;51.480;7.594;2022-08-16T15:38:32;44.10;33.40
25568;DHT22;13455;51.480;7.594;2022-08-16T15:43:27;43.50;50.10
25568;DHT22;13455;51.480;7.594;2022-08-16T15:45:52;43.70;39.20
25568;DHT22;13455;51.480;7.594;2022-08-16T15:48:37;43.60;33.00
25568;DHT22;13455;51.480;7.594;2022-08-16T15:51:05;43.70;34.50
25568;DHT22;13455;51.480;7.594;2022-08-16T15:55:59;43.40;64.00
25568;DHT22;13455;51.480;7.594;2022-08-16T16:00:52;42.30;32.90
25568;DHT22;13455;51.480;7.594;2022-08-16T16:13:08;40.90;34.90
25568;DHT22;13455;51.480;7.594;2022-08-16T16:15:40;40.40;36.00
25568;DHT22;13455;51.480;7.594;2022-08-16T16:49:58;38.60;37.30
25568;DHT22;13455;51.480;7.594;2022-08-16T16:52:28;38.50;38.10
25568;DHT22;13455;51.480;7.594;2022-08-16T16:54:55;38.00;39.20
25568;DHT22;13455;51.480;7.594;2022-08-16T16:57:20;37.60;40.20
25568;DHT22;13455;51.480;7.594;2022-08-16T17:00:06;37.30;40.90
25568;DHT22;13455;51.480;7.594;2022-08-16T17:02:32;36.90;41.40
25568;DHT22;13455;51.480;7.594;2022-08-16T17:04:59;36.50;41.60
25568;DHT22;13455;51.480;7.594;2022-08-16T17:07:26;36.20;42.20
25568;DHT22;13455;51.480;7.594;2022-08-16T17:09:53;35.80;42.70
25568;DHT22;13455;51.480;7.594;2022-08-16T17:12:18;35.60;43.30
25568;DHT22;13455;51.480;7.594;2022-08-16T17:17:12;34.90;44.40
25568;DHT22;13455;51.480;7.594;2022-08-16T17:19:39;34.90;44.90
25568;DHT22;13455;51.480;7.594;2022-08-16T17:22:05;34.50;44.80
25568;DHT22;13455;51.480;7.594;2022-08-16T17:24:31;34.40;45.70
25568;DHT22;13455;51.480;7.594;2022-08-16T17:26:57;34.20;48.80
25568;DHT22;13455;51.480;7.594;2022-08-16T17:29:26;34.00;46.30
25568;DHT22;13455;51.480;7.594;2022-08-16T17:31:52;34.10;66.80
25568;DHT22;13455;51.480;7.594;2022-08-16T17:34:17;33.60;53.30
25568;DHT22;13455;51.480;7.594;2022-08-16T17:39:11;33.50;78.30
25568;DHT22;13455;51.480;7.594;2022-08-16T17:41:37;33.00;48.60
25568;DHT22;13455;51.480;7.594;2022-08-16T17:56:18;32.50;49.50
25568;DHT22;13455;51.480;7.594;2022-08-16T17:58:45;32.40;66.30
25568;DHT22;13455;51.480;7.594;2022-08-16T18:11:03;31.60;89.40
25568;DHT22;13455;51.480;7.594;2022-08-16T18:23:39;30.90;91.20
25568;DHT22;13455;51.480;7.594;2022-08-16T18:31:04;30.80;92.50
25568;DHT22;13455;51.480;7.594;2022-08-16T18:53:04;29.60;83.60
25568;DHT22;13455;51.480;7.594;2022-08-16T19:39:45;27.90;61.50
25568;DHT22;13455;51.480;7.594;2022-08-16T19:42:14;28.10;62.70
25568;DHT22;13455;51.480;7.594;2022-08-16T19:52:29;27.50;63.00
25568;DHT22;13455;51.480;7.594;2022-08-16T20:02:28;27.10;64.60
25568;DHT22;13455;51.480;7.594;2022-08-16T20:31:49;26.40;67.90
25568;DHT22;13455;51.480;7.594;2022-08-16T20:51:23;25.90;71.80
25568;DHT22;13455;51.480;7.594;2022-08-16T20:53:48;25.80;92.60
25568;DHT22;13455;51.480;7.594;2022-08-16T21:06:00;25.40;76.80
25568;DHT22;13455;51.480;7.594;2022-08-16T21:28:02;25.00;82.70
25568;DHT22;13455;51.480;7.594;2022-08-16T21:30:28;24.90;84.30
25568;DHT22;13455;51.480;7.594;2022-08-16T21:35:27;24.80;85.30
25568;DHT22;13455;51.480;7.594;2022-08-16T21:37:53;24.70;85.70
25568;DHT22;13455;51.480;7.594;2022-08-16T23:01:01;23.90;92.00
25568;DHT22;13455;51.480;7.594;2022-08-16T23:03:28;23.90;92.30
25568;DHT22;13455;51.480;7.594;2022-08-16T23:30:25;23.80;95.00
25568;DHT22;13455;51.480;7.594;2022-08-16T23:32:57;23.70;97.00
25568;DHT22;13455;51.480;7.594;2022-08-16T23:40:19;23.80;97.00
25568;DHT22;13455;51.480;7.594;2022-08-16T23:43:03;23.50;98.00
25568;DHT22;13455;51.480;7.594;2022-08-16T23:47:58;23.30;99.30
